createdAt,value
2018-01-10T00:00:36.393Z,0.62
2018-01-10T00:01:36.557Z,0.60
2018-01-10T00:02:35.979Z,0.59
2018-01-10T00:03:36.578Z,0.69
2018-01-10T00:04:35.967Z,0.68
2018-01-10T00:05:35.912Z,0.58
2018-01-10T00:06:35.859Z,0.60
2018-01-10T00:07:36.099Z,0.65
2018-01-10T00:08:36.344Z,0.62
2018-01-10T03:48:35.881Z,1.74
2018-01-10T03:49:35.370Z,1.76
2018-01-10T03:50:35.257Z,1.74
2018-01-10T03:51:35.782Z,1.77
2018-01-10T03:52:35.191Z,1.77
2018-01-10T03:53:36.505Z,1.74
2018-01-10T03:54:36.003Z,1.85
2018-01-10T03:55:35.649Z,1.85
2018-01-10T03:56:35.038Z,1.80
2018-01-10T03:57:36.711Z,1.91
2018-01-10T03:58:35.516Z,1.87
2018-01-10T03:59:35.592Z,1.87
2018-01-10T04:00:34.960Z,1.87
2018-01-10T04:01:34.744Z,1.91
2018-01-10T04:02:34.885Z,1.89
2018-01-10T04:03:34.752Z,1.94
2018-01-10T04:04:34.651Z,1.88
2018-01-10T04:05:35.330Z,1.87
2018-01-10T04:06:34.955Z,1.89
2018-01-10T04:07:34.425Z,1.95
2018-01-10T04:08:34.759Z,1.85
2018-01-10T04:30:04.660Z,1.88
2018-01-10T04:31:05.130Z,1.88
2018-01-10T04:32:05.498Z,1.81
2018-01-10T04:33:05.488Z,1.88
2018-01-10T04:34:04.572Z,1.91
2018-01-10T04:35:04.387Z,1.92
2018-01-10T04:36:04.373Z,1.91
2018-01-10T04:37:04.664Z,1.92
2018-01-10T04:38:04.120Z,1.84
2018-01-10T04:39:04.043Z,1.91
2018-01-10T04:53:35.634Z,1.88
2018-01-10T04:54:33.156Z,1.91
2018-01-10T04:59:04.208Z,1.94
2018-01-10T05:00:03.856Z,1.95
2018-01-10T05:01:03.866Z,2.02
2018-01-10T05:02:04.398Z,2.04
2018-01-10T05:03:03.888Z,2.02
2018-01-10T05:04:03.877Z,2.06
2018-01-10T05:05:03.503Z,2.06
2018-01-10T05:06:03.889Z,2.11
2018-01-10T05:07:03.834Z,2.07
2018-01-10T05:08:02.865Z,2.15
2018-01-10T05:09:03.871Z,2.18
2018-01-10T05:10:03.870Z,2.14
2018-01-10T05:11:03.364Z,2.13
2018-01-10T05:12:02.816Z,2.13
2018-01-10T05:13:02.650Z,2.06
2018-01-10T05:14:02.451Z,2.15
2018-01-10T05:15:02.293Z,2.08
2018-01-10T05:16:02.366Z,2.11
2018-01-10T05:17:02.288Z,2.11
2018-01-10T05:18:02.387Z,2.15
2018-01-10T05:19:02.212Z,2.15
2018-01-10T05:20:02.227Z,2.15
2018-01-10T05:21:02.392Z,2.18
2018-01-10T05:22:02.231Z,2.15
2018-01-10T05:23:02.220Z,2.14
2018-01-10T05:24:02.205Z,2.17
2018-01-10T05:25:02.441Z,2.17
2018-01-10T05:26:02.138Z,2.20
2018-01-10T05:27:03.157Z,2.22
2018-01-10T05:28:02.073Z,2.25
2018-01-10T05:29:02.040Z,2.24
2018-01-10T05:30:02.115Z,2.26
2018-01-10T05:31:02.073Z,2.20
2018-01-10T05:32:01.969Z,2.18
2018-01-10T05:33:02.000Z,2.24
2018-01-10T05:34:02.151Z,2.20
2018-01-10T05:35:01.991Z,2.24
2018-01-10T05:36:01.989Z,2.26
2018-01-10T05:37:02.142Z,2.26
2018-01-10T05:38:01.863Z,2.26
2018-01-10T05:39:01.887Z,2.35
2018-01-10T05:40:01.832Z,2.35
2018-01-10T05:41:01.921Z,2.29
2018-01-10T05:42:01.730Z,2.24
2018-01-10T05:43:01.767Z,2.29
2018-01-10T05:44:01.671Z,2.24
2018-01-10T05:45:01.648Z,2.26
2018-01-10T05:46:01.950Z,2.26
2018-01-10T05:47:01.644Z,2.28
2018-01-10T05:48:04.257Z,2.26
2018-01-10T05:49:01.596Z,2.25
2018-01-10T05:50:01.574Z,2.31
2018-01-10T05:51:01.594Z,2.26
2018-01-10T05:52:01.764Z,2.26
2018-01-10T05:53:01.559Z,2.35
2018-01-10T05:54:01.373Z,2.28
2018-01-10T05:55:01.576Z,2.26
2018-01-10T05:56:01.594Z,2.29
2018-01-10T05:57:01.474Z,2.24
2018-01-10T05:58:01.370Z,2.26
2018-01-10T05:59:01.277Z,2.26
2018-01-10T06:00:01.329Z,2.33
2018-01-10T06:01:01.285Z,2.33
2018-01-10T06:02:01.352Z,2.29
2018-01-10T06:03:01.222Z,2.35
2018-01-10T06:04:01.208Z,2.26
2018-01-10T06:05:01.393Z,2.29
2018-01-10T06:06:01.195Z,2.28
2018-01-10T06:07:01.434Z,2.43
2018-01-10T06:08:01.084Z,2.33
2018-01-10T06:09:01.277Z,2.31
2018-01-10T06:10:01.264Z,2.42
2018-01-10T06:11:01.073Z,2.42
2018-01-10T06:12:00.950Z,2.44
2018-01-10T06:13:01.210Z,2.42
2018-01-10T06:14:00.911Z,2.39
2018-01-10T06:15:00.894Z,2.43
2018-01-10T06:16:00.836Z,2.39
2018-01-10T06:17:00.859Z,2.47
2018-01-10T06:18:00.803Z,2.51
2018-01-10T06:19:00.838Z,2.49
2018-01-10T06:20:00.891Z,2.39
2018-01-10T06:24:02.237Z,2.47
2018-01-10T06:25:01.842Z,2.50
2018-01-10T06:26:01.929Z,2.43
2018-01-10T06:27:02.224Z,2.39
2018-01-10T07:00:04.961Z,2.42
2018-01-10T07:01:05.860Z,2.29
2018-01-10T07:02:04.801Z,2.26
2018-01-10T07:03:04.919Z,2.28
2018-01-10T07:04:04.238Z,2.32
2018-01-10T07:05:05.231Z,2.35
2018-01-10T07:06:04.162Z,2.29
2018-01-10T07:07:04.895Z,2.29
2018-01-10T07:08:04.966Z,2.29
2018-01-10T07:09:04.616Z,2.32
2018-01-10T07:10:04.600Z,2.28
2018-01-10T07:11:05.431Z,2.28
2018-01-10T07:12:04.565Z,2.31
2018-01-10T07:13:04.945Z,2.28
2018-01-10T07:14:04.506Z,2.28
2018-01-10T07:15:03.813Z,2.39
2018-01-10T07:16:03.541Z,2.28
2018-01-10T07:17:03.544Z,2.39
2018-01-10T07:18:03.452Z,2.29
2018-01-10T07:19:03.498Z,2.31
2018-01-10T07:20:03.459Z,2.29
2018-01-10T07:21:03.378Z,2.26
2018-01-10T07:22:03.390Z,2.25
2018-01-10T07:23:03.377Z,2.28
2018-01-10T07:24:03.319Z,2.20
2018-01-10T07:25:03.371Z,2.24
2018-01-10T07:26:03.404Z,2.25
2018-01-10T07:27:03.261Z,2.26
2018-01-10T07:28:03.202Z,2.17
2018-01-10T07:29:03.205Z,2.22
2018-01-10T07:30:03.180Z,2.17
2018-01-10T07:31:03.182Z,2.18
2018-01-10T07:32:03.131Z,2.14
2018-01-10T07:33:03.093Z,2.17
2018-01-10T07:34:03.164Z,2.18
2018-01-10T07:35:03.076Z,2.13
2018-01-10T07:36:03.061Z,2.20
2018-01-10T07:37:03.002Z,2.22
2018-01-10T07:38:02.974Z,2.20
2018-01-10T07:39:02.996Z,2.17
2018-01-10T07:40:02.940Z,2.20
2018-01-10T07:41:02.908Z,2.24
2018-01-10T07:42:02.864Z,2.20
2018-01-10T07:43:02.908Z,2.17
2018-01-10T07:44:02.820Z,2.20
2018-01-10T07:45:02.863Z,2.15
2018-01-10T07:46:02.773Z,2.25
2018-01-10T07:47:02.750Z,2.28
2018-01-10T07:48:02.742Z,2.26
2018-01-10T07:49:02.735Z,2.29
2018-01-10T07:50:02.694Z,2.26
2018-01-10T07:51:02.638Z,2.33
2018-01-10T07:52:02.635Z,2.28
2018-01-10T07:53:02.595Z,2.36
2018-01-10T07:54:02.580Z,2.31
2018-01-10T07:55:02.601Z,2.36
2018-01-10T07:56:02.595Z,2.39
2018-01-10T07:57:02.634Z,2.47
2018-01-10T07:58:02.578Z,2.44
2018-01-10T07:59:02.492Z,2.53
2018-01-10T08:00:02.464Z,2.49
2018-01-10T08:01:02.429Z,2.64
2018-01-10T08:02:02.415Z,2.49
2018-01-10T08:03:03.093Z,2.62
2018-01-10T08:04:02.376Z,2.65
2018-01-10T08:05:02.343Z,2.60
2018-01-10T08:06:02.322Z,2.67
2018-01-10T08:07:02.310Z,2.71
2018-01-10T08:08:02.246Z,2.68
2018-01-10T08:09:02.247Z,2.68
2018-01-10T08:10:02.195Z,2.71
2018-01-10T08:11:02.244Z,2.67
2018-01-10T08:12:02.156Z,2.75
2018-01-10T08:13:02.157Z,2.77
2018-01-10T08:14:02.099Z,2.82
2018-01-10T08:15:02.153Z,2.90
2018-01-10T08:16:02.111Z,2.80
2018-01-10T08:17:02.097Z,2.86
2018-01-10T08:18:02.176Z,2.90
2018-01-10T08:19:02.027Z,2.90
2018-01-10T08:20:01.999Z,2.95
2018-01-10T08:21:01.993Z,2.92
2018-01-10T08:22:01.936Z,2.93
2018-01-10T08:23:01.926Z,2.97
2018-01-10T08:24:01.978Z,2.92
2018-01-10T08:25:01.841Z,3.13
2018-01-10T08:26:01.828Z,3.22
2018-01-10T08:27:01.936Z,3.18
2018-01-10T08:28:01.774Z,3.21
2018-01-10T08:29:01.742Z,3.18
2018-01-10T08:30:01.773Z,3.32
2018-01-10T08:31:01.702Z,3.40
2018-01-10T08:32:01.749Z,3.37
2018-01-10T08:33:01.667Z,3.34
2018-01-10T08:34:01.691Z,3.48
2018-01-10T08:35:01.660Z,3.55
2018-01-10T08:36:01.590Z,3.55
2018-01-10T08:37:01.580Z,3.50
2018-01-10T08:38:01.542Z,3.56
2018-01-10T08:39:01.523Z,3.65
2018-01-10T08:40:01.627Z,3.50
2018-01-10T08:41:01.511Z,3.65
2018-01-10T08:42:01.439Z,3.65
2018-01-10T08:43:01.446Z,3.76
2018-01-10T08:44:01.417Z,3.81
2018-01-10T08:45:01.427Z,3.76
2018-01-10T08:46:01.368Z,3.78
2018-01-10T08:47:01.342Z,3.96
2018-01-10T08:48:01.328Z,4.01
2018-01-10T08:49:01.299Z,4.05
2018-01-10T08:50:01.281Z,4.04
2018-01-10T08:51:02.111Z,4.04
2018-01-10T08:52:01.217Z,4.14
2018-01-10T08:53:01.235Z,4.22
2018-01-10T08:54:01.686Z,4.12
2018-01-10T08:55:01.615Z,4.13
2018-01-10T11:01:05.185Z,8.85
2018-01-10T11:02:05.737Z,8.89
2018-01-10T11:03:05.865Z,8.95
2018-01-10T11:04:05.063Z,8.97
2018-01-10T11:05:05.712Z,9.02
2018-01-10T11:06:04.753Z,9.06
2018-01-10T11:07:04.761Z,9.13
2018-01-10T11:08:04.700Z,9.10
2018-01-10T11:09:04.709Z,9.31
2018-01-10T11:10:04.648Z,9.32
2018-01-10T11:11:05.497Z,9.37
2018-01-10T11:12:04.657Z,9.40
2018-01-10T11:13:04.625Z,9.51
2018-01-10T11:14:04.519Z,9.56
2018-01-10T11:15:04.604Z,9.65
2018-01-10T11:16:04.531Z,9.72
2018-01-10T11:17:04.460Z,9.77
2018-01-10T11:18:04.467Z,9.84
2018-01-10T11:19:04.422Z,9.98
2018-01-10T11:20:04.462Z,10.10
2018-01-10T11:21:04.394Z,10.01
2018-01-10T11:22:04.395Z,10.05
2018-01-10T11:23:04.408Z,10.12
2018-01-10T11:24:04.340Z,10.22
2018-01-10T11:25:04.347Z,10.20
2018-01-10T11:26:04.318Z,10.20
2018-01-10T11:27:08.708Z,10.23
2018-01-10T11:28:04.330Z,10.33
2018-01-10T11:29:04.259Z,10.37
2018-01-10T11:30:04.323Z,10.41
2018-01-10T11:31:04.246Z,10.38
2018-01-10T11:32:04.238Z,10.68
2018-01-10T11:33:04.198Z,10.93
2018-01-10T11:34:04.159Z,11.23
2018-01-10T11:35:04.133Z,11.62
2018-01-10T11:36:04.128Z,12.03
2018-01-10T11:37:04.180Z,12.36
2018-01-10T11:38:04.049Z,12.91
2018-01-10T11:39:04.215Z,13.19
2018-01-10T11:40:04.099Z,13.41
2018-01-10T11:41:04.193Z,13.59
2018-01-10T11:42:04.025Z,13.77
2018-01-10T11:43:04.342Z,14.12
2018-01-10T11:44:04.041Z,14.45
2018-01-10T11:45:03.982Z,14.82
2018-01-10T11:46:04.005Z,15.07
2018-01-10T11:47:03.899Z,15.25
2018-01-10T11:48:03.994Z,15.43
2018-01-10T11:49:03.949Z,15.51
2018-01-10T11:50:03.948Z,15.24
2018-01-10T11:51:03.974Z,15.03
2018-01-10T11:52:03.856Z,14.97
2018-01-10T11:53:03.927Z,14.91
2018-01-10T12:31:45.225Z,17.92
2018-01-10T12:32:38.848Z,17.71
2018-01-10T12:33:37.859Z,17.52
2018-01-10T12:34:38.903Z,17.27
2018-01-10T12:35:37.902Z,17.02
2018-01-10T12:36:38.435Z,16.99
2018-01-10T12:37:39.356Z,17.02
2018-01-10T12:38:39.415Z,17.04
2018-01-10T12:39:37.836Z,17.29
2018-01-10T12:40:38.868Z,17.74
2018-01-10T12:41:38.855Z,17.95
2018-01-10T12:42:37.801Z,18.33
2018-01-10T12:43:37.822Z,18.53
2018-01-10T12:44:37.418Z,18.62
2018-01-10T12:45:37.324Z,18.65
2018-01-10T12:46:37.296Z,18.44
2018-01-10T12:47:37.363Z,18.29
2018-01-10T12:48:37.269Z,18.23
2018-01-10T12:49:37.332Z,18.20
2018-01-10T12:50:37.208Z,18.20
2018-01-10T12:51:37.294Z,18.43
2018-01-10T12:52:37.186Z,18.58
2018-01-10T12:53:37.664Z,18.34
2018-01-10T12:54:37.248Z,18.18
2018-01-10T12:55:37.969Z,18.26
2018-01-10T12:56:37.365Z,18.41
2018-01-10T12:57:37.192Z,18.44
2018-01-10T12:58:37.157Z,18.63
2018-01-10T12:59:37.433Z,18.68
2018-01-10T16:20:28.058Z,3.58
2018-01-10T16:21:28.013Z,3.56
2018-01-10T16:22:29.287Z,3.56
2018-01-10T16:23:28.028Z,3.51
2018-01-10T16:24:27.967Z,3.44
2018-01-10T16:25:27.898Z,3.48
2018-01-10T16:26:27.805Z,3.48
2018-01-10T16:27:27.677Z,3.37
2018-01-10T16:28:27.693Z,3.32
2018-01-10T16:29:27.634Z,3.41
2018-01-10T16:30:27.623Z,3.36
2018-01-10T16:32:47.990Z,3.32
2018-01-10T16:33:47.837Z,3.31
2018-01-10T16:35:41.343Z,3.37
2018-01-10T16:36:41.451Z,3.28
2018-01-10T16:37:41.435Z,3.32
2018-01-10T16:38:41.210Z,3.25
2018-01-10T16:39:41.127Z,3.36
2018-01-10T16:40:41.072Z,3.22
2018-01-10T16:41:41.062Z,3.25
2018-01-10T16:42:41.000Z,3.26
2018-01-10T16:43:40.961Z,3.26
2018-01-10T16:44:41.013Z,3.19
2018-01-10T16:45:40.946Z,3.25
2018-01-10T16:46:40.950Z,3.19
2018-01-10T16:47:40.895Z,3.29
2018-01-10T16:48:40.874Z,3.23
2018-01-10T16:49:40.866Z,3.26
2018-01-10T16:50:40.856Z,3.18
2018-01-10T16:51:40.828Z,3.11
2018-01-10T16:52:40.781Z,3.18
2018-01-10T16:53:40.751Z,3.19
2018-01-10T16:54:40.821Z,3.13
2018-01-10T16:55:40.744Z,3.14
2018-01-10T16:56:40.669Z,3.16
2018-01-10T16:57:40.653Z,3.13
2018-01-10T16:58:40.620Z,3.16
2018-01-10T16:59:40.604Z,3.11
2018-01-10T17:00:40.584Z,3.22
2018-01-10T17:01:40.645Z,3.13
2018-01-10T17:02:40.608Z,3.16
2018-01-10T17:03:40.845Z,3.11
2018-01-10T17:04:40.728Z,3.07
2018-01-10T17:05:41.109Z,3.05
2018-01-10T17:06:41.020Z,3.07
2018-01-10T17:07:42.666Z,3.04
2018-01-10T17:08:40.561Z,3.03
2018-01-10T17:09:40.395Z,3.00
2018-01-10T17:10:40.359Z,2.93
2018-01-10T17:11:40.368Z,2.93
2018-01-10T17:12:40.414Z,3.00
2018-01-10T17:13:40.338Z,2.98
2018-01-10T17:14:40.385Z,2.90
2018-01-10T17:15:40.242Z,2.90
2018-01-10T17:16:40.249Z,2.97
2018-01-10T17:17:40.245Z,3.00
2018-01-10T17:18:40.170Z,3.00
2018-01-10T17:19:40.166Z,2.97
2018-01-10T17:20:40.158Z,3.01
2018-01-10T17:21:40.106Z,3.07
2018-01-10T17:22:40.089Z,3.05
2018-01-10T17:23:40.078Z,3.07
2018-01-10T17:24:40.033Z,3.07
2018-01-10T17:25:40.046Z,3.01
2018-01-10T17:26:40.018Z,3.05
2018-01-10T17:27:39.960Z,3.07
2018-01-10T17:28:39.929Z,3.00
2018-01-10T17:29:39.943Z,3.05
2018-01-10T17:30:39.915Z,2.95
2018-01-10T17:31:39.880Z,3.03
2018-01-10T17:32:39.897Z,3.07
2018-01-10T17:33:39.823Z,3.08
2018-01-10T17:34:39.829Z,3.07
2018-01-10T17:35:39.799Z,3.05
2018-01-10T17:36:39.831Z,3.07
2018-01-10T17:37:39.775Z,3.05
2018-01-10T17:38:39.720Z,3.04
2018-01-10T17:39:39.751Z,3.04
2018-01-10T17:40:39.662Z,3.11
2018-01-10T17:41:39.687Z,3.10
2018-01-10T17:42:39.611Z,3.25
2018-01-10T17:43:39.705Z,3.23
2018-01-10T17:44:39.645Z,3.16
2018-01-10T17:45:39.580Z,3.13
2018-01-10T17:46:39.581Z,3.22
2018-01-10T17:47:40.243Z,3.25
2018-01-10T17:48:39.505Z,3.18
2018-01-10T17:49:39.484Z,3.16
2018-01-10T17:50:39.608Z,3.28
2018-01-10T17:51:39.593Z,3.21
2018-01-10T17:52:39.663Z,3.25
2018-01-10T17:53:39.388Z,3.25
2018-01-10T17:54:39.369Z,3.26
2018-01-10T17:55:39.382Z,3.36
2018-01-10T17:56:39.304Z,3.32
2018-01-10T17:57:39.432Z,3.36
2018-01-10T17:58:39.381Z,3.29
2018-01-10T17:59:39.252Z,3.31
2018-01-10T18:00:39.304Z,3.37
2018-01-10T18:01:39.177Z,3.41
2018-01-10T18:02:39.164Z,3.34
2018-01-10T18:03:39.146Z,3.36
2018-01-10T18:04:39.156Z,3.37
2018-01-10T18:05:39.138Z,3.37
2018-01-10T18:06:39.320Z,3.48
2018-01-10T18:07:39.731Z,3.34
2018-01-10T18:08:39.073Z,3.44
2018-01-10T18:09:39.025Z,3.37
2018-01-10T18:10:39.145Z,3.44
2018-01-10T18:11:38.978Z,3.47
2018-01-10T18:12:39.780Z,3.48
2018-01-10T18:13:38.911Z,3.45
2018-01-10T18:14:38.966Z,3.42
2018-01-10T18:15:38.927Z,3.48
2018-01-10T18:16:38.871Z,3.48
2018-01-10T18:17:38.879Z,3.42
2018-01-10T18:18:38.823Z,3.36
2018-01-10T18:19:38.798Z,3.36
2018-01-10T18:20:40.105Z,3.36
2018-01-10T18:21:38.921Z,3.29
2018-01-10T18:22:38.964Z,3.32
2018-01-10T18:23:40.265Z,3.42
2018-01-10T18:24:38.868Z,3.40
2018-01-10T18:25:38.660Z,3.31
2018-01-10T18:26:38.684Z,3.36
2018-01-10T18:27:38.702Z,3.32
2018-01-10T18:28:38.873Z,3.44
2018-01-10T18:29:38.583Z,3.36
2018-01-10T18:30:38.632Z,3.37
2018-01-10T18:31:38.557Z,3.31
2018-01-10T18:32:38.529Z,3.47
2018-01-10T18:33:38.511Z,3.36
2018-01-10T18:34:38.442Z,3.40
2018-01-10T18:35:38.425Z,3.36
2018-01-10T18:36:38.456Z,3.36
2018-01-10T18:37:38.358Z,3.32
2018-01-10T18:38:38.324Z,3.36
2018-01-10T18:39:38.312Z,3.40
2018-01-10T18:40:38.268Z,3.32
2018-01-10T18:41:38.274Z,3.32
2018-01-10T18:42:38.278Z,3.36
2018-01-10T18:43:38.216Z,3.34
2018-01-10T18:44:38.180Z,3.32
2018-01-10T18:45:38.169Z,3.32
2018-01-10T18:46:39.202Z,3.26
2018-01-10T18:47:38.145Z,3.25
2018-01-10T18:48:38.104Z,3.25
2018-01-10T18:49:38.338Z,3.25
2018-01-10T18:50:38.069Z,3.26
2018-01-10T18:51:38.040Z,3.23
2018-01-10T18:52:38.036Z,3.28
2018-01-10T18:53:38.198Z,3.25
2018-01-10T18:54:37.974Z,3.25
2018-01-10T18:55:37.951Z,3.26
2018-01-10T18:56:37.905Z,3.28
2018-01-10T18:57:37.879Z,3.28
2018-01-10T18:58:37.878Z,3.32
2018-01-10T18:59:37.863Z,3.31
2018-01-10T19:00:37.827Z,3.31
2018-01-10T19:01:37.796Z,3.34
2018-01-10T19:02:37.782Z,3.31
2018-01-10T19:03:37.751Z,3.40
2018-01-10T19:04:37.716Z,3.31
2018-01-10T19:05:37.699Z,3.37
2018-01-10T19:06:37.685Z,3.37
2018-01-10T19:07:37.675Z,3.51
2018-01-10T19:08:37.657Z,3.47
2018-01-10T19:09:37.604Z,3.55
2018-01-10T19:10:37.584Z,3.50
2018-01-10T19:11:37.568Z,3.53
2018-01-10T19:12:37.560Z,3.51
2018-01-10T19:13:37.587Z,3.53
2018-01-10T19:14:37.488Z,3.55
2018-01-10T19:15:37.615Z,3.62
2018-01-10T19:16:37.476Z,3.58
2018-01-10T19:17:37.427Z,3.63
2018-01-10T19:18:37.418Z,3.60
2018-01-10T19:19:37.462Z,3.59
2018-01-10T19:20:37.343Z,3.60
2018-01-10T19:21:37.338Z,3.63
2018-01-10T19:22:37.364Z,3.56
2018-01-10T19:23:37.302Z,3.53
2018-01-10T19:24:37.259Z,3.58
2018-01-10T19:25:37.254Z,3.50
2018-01-10T19:26:37.239Z,3.50
2018-01-10T19:27:37.189Z,3.55
2018-01-10T19:28:37.243Z,3.48
2018-01-10T19:29:37.168Z,3.37
2018-01-10T19:30:37.144Z,3.37
2018-01-10T19:31:37.206Z,3.41
2018-01-10T19:32:37.195Z,3.32
2018-01-10T19:33:37.189Z,3.32
2018-01-10T19:34:37.117Z,3.21
2018-01-10T19:35:37.024Z,3.32
2018-01-10T19:36:37.013Z,3.26
2018-01-10T19:37:36.992Z,3.26
2018-01-10T19:38:36.968Z,3.21
2018-01-10T19:39:36.978Z,3.23
2018-01-10T19:40:36.930Z,3.28
2018-01-10T19:41:36.867Z,3.19
2018-01-10T19:42:36.860Z,3.21
2018-01-10T19:43:36.864Z,3.19
2018-01-10T19:44:36.869Z,3.18
2018-01-10T19:45:36.783Z,3.21
2018-01-10T19:46:36.796Z,3.21
2018-01-10T19:47:36.783Z,3.19
2018-01-10T19:48:36.754Z,3.19
2018-01-10T19:49:36.696Z,3.25
2018-01-10T19:50:36.673Z,3.21
2018-01-10T19:51:36.643Z,3.22
2018-01-10T19:52:36.612Z,3.25
2018-01-10T19:53:36.616Z,3.21
2018-01-10T19:54:36.592Z,3.25
2018-01-10T19:55:36.607Z,3.19
2018-01-10T19:56:36.544Z,3.26
2018-01-10T19:57:36.516Z,3.28
2018-01-10T19:58:36.537Z,3.31
2018-01-10T19:59:36.467Z,3.32
2018-01-10T20:00:36.500Z,3.37
2018-01-10T20:01:36.487Z,3.47
2018-01-10T20:02:36.420Z,3.48
2018-01-10T20:03:36.392Z,3.48
2018-01-10T20:04:36.397Z,3.55
2018-01-10T20:05:36.416Z,3.55
2018-01-10T20:06:36.291Z,3.58
2018-01-10T20:07:36.330Z,3.55
2018-01-10T20:08:36.349Z,3.51
2018-01-10T20:09:36.295Z,3.55
2018-01-10T20:10:36.232Z,3.53
2018-01-10T20:11:36.215Z,3.59
2018-01-10T20:12:36.160Z,3.62
2018-01-10T20:13:36.137Z,3.60
2018-01-10T20:14:36.139Z,3.62
2018-01-10T20:15:36.144Z,3.56
2018-01-10T20:16:36.111Z,3.63
2018-01-10T20:17:36.093Z,3.62
2018-01-10T20:18:36.083Z,3.60
2018-01-10T20:19:36.076Z,3.63
2018-01-10T20:20:35.975Z,3.62
2018-01-10T20:21:35.945Z,3.63
2018-01-10T20:22:35.953Z,3.55
2018-01-10T20:23:35.933Z,3.58
2018-01-10T20:24:35.918Z,3.53
2018-01-10T20:25:35.918Z,3.53
2018-01-10T20:26:35.830Z,3.50
2018-01-10T20:27:35.837Z,3.55
2018-01-10T20:28:35.866Z,3.50
2018-01-10T20:29:35.782Z,3.53
2018-01-10T20:30:35.748Z,3.55
2018-01-10T20:31:35.747Z,3.55
2018-01-10T20:32:35.714Z,3.53
2018-01-10T20:33:35.706Z,3.59
2018-01-10T20:34:35.766Z,3.58
2018-01-10T20:35:35.615Z,3.62
2018-01-10T20:36:35.652Z,3.59
2018-01-10T20:37:35.572Z,3.62
2018-01-10T20:38:35.571Z,3.62
2018-01-10T20:39:35.539Z,3.65
2018-01-10T20:40:35.538Z,3.65
2018-01-10T20:41:35.512Z,3.60
2018-01-10T20:42:35.466Z,3.58
2018-01-10T20:43:35.432Z,3.60
2018-01-10T20:44:35.442Z,3.63
2018-01-10T20:45:35.465Z,3.59
2018-01-10T20:46:35.395Z,3.60
2018-01-10T20:47:35.353Z,3.60
2018-01-10T20:48:35.380Z,3.55
2018-01-10T20:49:35.305Z,3.56
2018-01-10T20:50:35.365Z,3.55
2018-01-10T20:51:35.274Z,3.42
2018-01-10T20:52:35.248Z,3.40
2018-01-10T20:53:35.252Z,3.42
2018-01-10T20:54:35.223Z,3.34
2018-01-10T20:55:35.216Z,3.37
2018-01-10T20:56:35.160Z,3.42
2018-01-10T20:57:35.156Z,3.37
2018-01-10T20:58:35.120Z,3.31
2018-01-10T20:59:35.092Z,3.42
2018-01-10T21:00:35.060Z,3.47
2018-01-10T21:01:35.037Z,3.56
2018-01-10T21:02:35.010Z,3.50
2018-01-10T21:03:34.979Z,3.50
2018-01-10T21:04:34.950Z,3.56
2018-01-10T21:05:34.989Z,3.58
2018-01-10T21:06:34.968Z,3.62
2018-01-10T21:07:34.910Z,3.68
2018-01-10T21:08:34.868Z,3.68
2018-01-10T21:09:34.869Z,3.76
2018-01-10T21:10:34.817Z,3.81
2018-01-10T21:11:34.805Z,3.78
2018-01-10T21:12:34.808Z,3.76
2018-01-10T21:13:34.808Z,3.78
2018-01-10T21:14:34.798Z,3.78
2018-01-10T21:15:34.736Z,3.78
2018-01-10T21:16:34.716Z,3.74
2018-01-10T21:17:34.720Z,3.73
2018-01-10T21:18:34.669Z,3.77
2018-01-10T21:19:34.787Z,3.74
2018-01-10T21:20:34.638Z,3.74
2018-01-10T21:21:34.597Z,3.78
2018-01-10T21:22:34.592Z,3.78
2018-01-10T21:23:34.530Z,3.76
2018-01-10T21:24:34.563Z,3.77
2018-01-10T21:25:34.495Z,3.78
2018-01-10T21:26:34.492Z,3.77
2018-01-10T21:27:34.432Z,3.81
2018-01-10T21:28:34.403Z,3.81
2018-01-10T21:29:34.416Z,3.80
2018-01-10T21:30:34.356Z,3.86
2018-01-10T21:31:34.388Z,3.84
2018-01-10T21:32:34.330Z,3.81
2018-01-10T21:33:34.480Z,3.80
2018-01-10T21:34:34.466Z,3.88
2018-01-10T21:35:34.356Z,3.83
2018-01-10T21:36:34.486Z,3.78
2018-01-10T21:37:34.200Z,3.96
2018-01-10T21:38:34.231Z,3.81
2018-01-10T21:39:34.835Z,3.87
2018-01-10T21:40:34.130Z,3.84
2018-01-10T21:41:34.121Z,3.81
2018-01-10T21:45:01.977Z,3.80
2018-01-10T21:46:04.166Z,3.81
2018-01-10T21:46:58.095Z,3.77
2018-01-10T21:47:58.076Z,3.78
2018-01-10T21:48:57.550Z,3.77
2018-01-10T21:49:57.913Z,3.81
2018-01-10T21:50:58.268Z,3.77
2018-01-10T21:51:57.137Z,3.77
2018-01-10T21:52:59.267Z,3.91
2018-01-10T21:53:59.043Z,3.94
2018-01-10T21:54:57.934Z,3.91
2018-01-10T21:55:56.681Z,4.02
2018-01-10T21:56:56.566Z,3.96
2018-01-10T21:57:56.521Z,3.95
2018-01-10T21:58:56.486Z,3.94
2018-01-10T21:59:56.534Z,3.94
2018-01-10T22:00:56.640Z,3.94
2018-01-10T22:01:56.531Z,4.01
2018-01-10T22:02:56.671Z,3.96
2018-01-10T22:03:56.518Z,3.88
2018-01-10T22:04:56.409Z,3.95
2018-01-10T22:05:56.425Z,3.92
2018-01-10T22:06:56.394Z,3.98
2018-01-10T22:07:56.282Z,3.99
2018-01-10T22:08:56.319Z,3.96
2018-01-10T22:09:56.328Z,3.98
2018-01-10T22:10:56.304Z,3.98
2018-01-10T22:11:56.443Z,3.95
2018-01-10T22:12:56.517Z,3.95
2018-01-10T22:13:56.274Z,3.92
2018-01-10T22:14:56.233Z,3.92
2018-01-10T22:17:18.378Z,3.99
2018-01-10T22:18:18.081Z,3.91
2018-01-10T22:20:11.381Z,3.92
2018-01-10T22:21:10.928Z,3.98
2018-01-10T22:22:10.749Z,3.99
2018-01-10T22:23:10.927Z,3.99
2018-01-10T22:24:10.735Z,3.95
2018-01-10T22:25:10.571Z,4.01
2018-01-10T22:26:10.590Z,3.96
2018-01-10T22:27:10.564Z,3.99
2018-01-10T22:28:10.486Z,3.92
2018-01-10T22:29:10.484Z,3.94
2018-01-10T22:30:10.486Z,3.95
2018-01-10T22:31:10.419Z,3.98
2018-01-10T22:32:10.407Z,3.99
2018-01-10T22:33:10.362Z,4.01
2018-01-10T22:34:10.437Z,4.01
2018-01-10T22:35:10.439Z,4.02
2018-01-10T22:36:10.378Z,4.01
2018-01-10T22:37:10.320Z,4.05
2018-01-10T22:38:10.302Z,4.01
2018-01-10T22:39:10.302Z,4.02
2018-01-10T22:40:10.244Z,4.04
2018-01-10T22:41:10.312Z,3.96
2018-01-10T22:42:10.508Z,4.04
2018-01-10T22:43:10.175Z,4.06
2018-01-10T22:44:10.216Z,4.05
2018-01-10T22:45:10.126Z,4.10
2018-01-10T22:46:10.175Z,4.04
2018-01-10T22:47:10.120Z,4.04
2018-01-10T22:48:10.051Z,4.10
2018-01-10T22:49:10.032Z,4.04
2018-01-10T22:50:09.993Z,4.04
2018-01-10T22:51:10.064Z,4.12
2018-01-10T22:52:10.069Z,4.12
2018-01-10T22:53:12.885Z,4.10
2018-01-10T22:59:48.650Z,4.02
2018-01-10T23:00:44.057Z,4.02
2018-01-10T23:01:40.670Z,4.16
2018-01-10T23:02:41.185Z,4.04
2018-01-10T23:03:40.793Z,4.10
2018-01-10T23:04:40.617Z,4.19
2018-01-10T23:05:40.970Z,4.14
2018-01-10T23:06:41.820Z,4.08
2018-01-10T23:07:40.525Z,4.08
2018-01-10T23:08:40.251Z,4.13
2018-01-10T23:09:41.759Z,4.17
2018-01-10T23:10:40.180Z,4.05
2018-01-10T23:11:40.165Z,4.14
2018-01-10T23:12:40.128Z,4.12
2018-01-10T23:13:40.152Z,4.20
2018-01-10T23:14:40.152Z,4.16
2018-01-10T23:15:40.029Z,4.06
2018-01-10T23:16:40.078Z,4.14
2018-01-10T23:17:40.076Z,4.12
2018-01-10T23:18:40.202Z,4.13
2018-01-10T23:19:39.993Z,4.20
2018-01-10T23:20:40.805Z,4.08
2018-01-10T23:21:40.009Z,4.12
2018-01-10T23:22:39.976Z,4.04
2018-01-10T23:23:39.938Z,4.12
2018-01-10T23:24:39.958Z,4.02
2018-01-10T23:25:39.898Z,4.17
2018-01-10T23:26:39.997Z,4.17
2018-01-10T23:27:39.883Z,4.19
2018-01-10T23:28:39.878Z,4.17
2018-01-10T23:29:39.750Z,4.16
2018-01-10T23:30:39.777Z,4.22
2018-01-10T23:31:39.760Z,4.19
2018-01-10T23:32:39.788Z,4.12
2018-01-10T23:33:39.715Z,4.04
2018-01-10T23:34:39.735Z,4.04
2018-01-10T23:35:39.740Z,4.08
2018-01-10T23:36:39.752Z,4.05
2018-01-10T23:37:39.752Z,4.08
2018-01-10T23:38:39.761Z,3.99
2018-01-10T23:39:39.554Z,3.99
2018-01-10T23:40:39.698Z,3.92
2018-01-10T23:41:39.676Z,3.95
2018-01-10T23:42:39.497Z,4.01
2018-01-10T23:43:39.641Z,3.98
2018-01-10T23:44:39.484Z,3.99
2018-01-10T23:45:39.476Z,3.99
2018-01-10T23:46:39.496Z,3.99
2018-01-10T23:47:39.403Z,3.98
2018-01-10T23:48:39.299Z,3.98
2018-01-10T23:49:39.370Z,4.02
2018-01-10T23:50:39.261Z,4.04
2018-01-10T23:51:39.255Z,4.01
2018-01-10T23:52:39.292Z,3.99
2018-01-10T23:53:39.342Z,3.99
2018-01-10T23:54:39.197Z,3.98
2018-01-10T23:55:39.293Z,3.96
2018-01-10T23:56:39.187Z,3.95
2018-01-10T23:57:39.250Z,3.87
2018-01-10T23:58:39.494Z,3.80
2018-01-10T23:59:39.082Z,3.83
